Chaseville, New York
Current Conditions -  °F | °C
As of 3:15 AM on Thursday 27 Nov 2014 (Local Time) from KNY0 Reporting Station
Overcast Overcast  
Wind Chill: 27°   Ceiling: 4700
Heat Index: 27°   Visibility: 7mi
Dew Point: 26°   Wind: 3mph
Humidity: 94%   Direction: 260°W
Pressure: 29.9"   Gusts: NA
Location:  42.5423°N, 74.8983°W
Report Text: KNY0 270815Z AUTO 26003KT 7SM SCT012 OVC047 M03/M03 A2990 RMK AO2 T10271035
Loading
Personal Weather Stations






























Interactive Weather Map New forecast layout! Learn more

10-Day Weather Forecast

Advertisements
Track Severe Weather on mobile